sensor_id;sensor_type;location;lat;lon;timestamp;P1;durP1;ratioP1;P2;durP2;ratioP2
75793;SDS011;64418;47.536;19.074;2023-02-28T00:01:32;15.45;;;6.95;;
75793;SDS011;64418;47.536;19.074;2023-02-28T00:04:18;12.77;;;6.27;;
75793;SDS011;64418;47.536;19.074;2023-02-28T00:06:45;13.20;;;7.30;;
75793;SDS011;64418;47.536;19.074;2023-02-28T00:09:10;14.32;;;7.03;;
75793;SDS011;64418;47.536;19.074;2023-02-28T00:11:36;16.20;;;8.20;;
75793;SDS011;64418;47.536;19.074;2023-02-28T00:14:02;15.32;;;8.02;;
75793;SDS011;64418;47.536;19.074;2023-02-28T00:16:48;16.00;;;7.28;;
75793;SDS011;64418;47.536;19.074;2023-02-28T00:19:13;16.33;;;7.57;;
75793;SDS011;64418;47.536;19.074;2023-02-28T00:21:39;18.20;;;8.32;;
75793;SDS011;64418;47.536;19.074;2023-02-28T00:24:26;15.15;;;7.90;;
75793;SDS011;64418;47.536;19.074;2023-02-28T00:26:52;15.17;;;7.77;;
75793;SDS011;64418;47.536;19.074;2023-02-28T00:29:18;17.17;;;8.88;;
75793;SDS011;64418;47.536;19.074;2023-02-28T00:31:43;14.07;;;7.43;;
75793;SDS011;64418;47.536;19.074;2023-02-28T00:34:09;17.45;;;7.50;;
75793;SDS011;64418;47.536;19.074;2023-02-28T00:36:35;14.23;;;7.83;;
75793;SDS011;64418;47.536;19.074;2023-02-28T00:39:01;14.00;;;6.60;;
75793;SDS011;64418;47.536;19.074;2023-02-28T00:41:28;12.88;;;7.35;;
75793;SDS011;64418;47.536;19.074;2023-02-28T00:43:53;15.32;;;7.82;;
75793;SDS011;64418;47.536;19.074;2023-02-28T00:46:19;17.10;;;7.97;;
75793;SDS011;64418;47.536;19.074;2023-02-28T00:48:45;17.05;;;7.90;;
75793;SDS011;64418;47.536;19.074;2023-02-28T00:51:10;15.13;;;7.57;;
75793;SDS011;64418;47.536;19.074;2023-02-28T00:53:36;17.08;;;8.35;;
75793;SDS011;64418;47.536;19.074;2023-02-28T00:56:02;15.83;;;7.97;;
75793;SDS011;64418;47.536;19.074;2023-02-28T00:58:29;12.90;;;7.55;;
75793;SDS011;64418;47.536;19.074;2023-02-28T01:00:55;15.10;;;7.20;;
75793;SDS011;64418;47.536;19.074;2023-02-28T01:03:21;14.27;;;7.57;;
75793;SDS011;64418;47.536;19.074;2023-02-28T01:06:07;15.33;;;7.27;;
75793;SDS011;64418;47.536;19.074;2023-02-28T01:08:33;15.20;;;6.97;;
75793;SDS011;64418;47.536;19.074;2023-02-28T01:11:18;16.35;;;7.07;;
75793;SDS011;64418;47.536;19.074;2023-02-28T01:13:46;15.77;;;7.10;;
75793;SDS011;64418;47.536;19.074;2023-02-28T01:16:12;16.52;;;7.25;;
75793;SDS011;64418;47.536;19.074;2023-02-28T01:18:38;14.25;;;7.47;;
75793;SDS011;64418;47.536;19.074;2023-02-28T01:21:04;14.93;;;7.10;;
75793;SDS011;64418;47.536;19.074;2023-02-28T01:23:31;16.25;;;8.00;;
75793;SDS011;64418;47.536;19.074;2023-02-28T01:25:57;17.60;;;7.37;;
75793;SDS011;64418;47.536;19.074;2023-02-28T01:28:28;15.70;;;7.80;;
75793;SDS011;64418;47.536;19.074;2023-02-28T01:30:55;16.87;;;7.57;;
75793;SDS011;64418;47.536;19.074;2023-02-28T01:33:20;15.85;;;8.30;;
75793;SDS011;64418;47.536;19.074;2023-02-28T01:36:09;17.33;;;6.90;;
75793;SDS011;64418;47.536;19.074;2023-02-28T01:38:56;22.98;;;7.72;;
75793;SDS011;64418;47.536;19.074;2023-02-28T01:41:22;17.42;;;8.02;;
75793;SDS011;64418;47.536;19.074;2023-02-28T01:43:53;14.27;;;7.57;;
75793;SDS011;64418;47.536;19.074;2023-02-28T01:46:25;13.27;;;7.13;;
75793;SDS011;64418;47.536;19.074;2023-02-28T01:48:51;15.35;;;8.10;;
75793;SDS011;64418;47.536;19.074;2023-02-28T01:51:22;9.85;;;5.93;;
75793;SDS011;64418;47.536;19.074;2023-02-28T01:53:52;13.88;;;7.07;;
75793;SDS011;64418;47.536;19.074;2023-02-28T01:56:23;15.82;;;7.32;;
75793;SDS011;64418;47.536;19.074;2023-02-28T01:58:53;11.90;;;6.97;;
75793;SDS011;64418;47.536;19.074;2023-02-28T02:01:20;13.07;;;7.03;;
75793;SDS011;64418;47.536;19.074;2023-02-28T02:03:48;14.48;;;8.23;;
75793;SDS011;64418;47.536;19.074;2023-02-28T02:06:35;15.48;;;7.40;;
75793;SDS011;64418;47.536;19.074;2023-02-28T02:09:04;13.75;;;7.57;;
75793;SDS011;64418;47.536;19.074;2023-02-28T02:11:30;16.53;;;7.63;;
75793;SDS011;64418;47.536;19.074;2023-02-28T02:14:00;15.50;;;7.70;;
75793;SDS011;64418;47.536;19.074;2023-02-28T02:17:01;13.68;;;7.57;;
75793;SDS011;64418;47.536;19.074;2023-02-28T02:19:50;13.00;;;6.77;;
75793;SDS011;64418;47.536;19.074;2023-02-28T02:22:37;13.07;;;6.85;;
75793;SDS011;64418;47.536;19.074;2023-02-28T02:25:49;13.32;;;7.35;;
75793;SDS011;64418;47.536;19.074;2023-02-28T02:31:50;14.87;;;7.25;;
75793;SDS011;64418;47.536;19.074;2023-02-28T02:34:53;12.97;;;7.23;;
75793;SDS011;64418;47.536;19.074;2023-02-28T02:37:27;15.90;;;7.22;;
75793;SDS011;64418;47.536;19.074;2023-02-28T02:40:03;12.55;;;7.22;;
75793;SDS011;64418;47.536;19.074;2023-02-28T02:42:39;14.98;;;7.87;;
75793;SDS011;64418;47.536;19.074;2023-02-28T02:45:10;13.13;;;6.97;;
75793;SDS011;64418;47.536;19.074;2023-02-28T02:47:41;11.13;;;6.57;;
75793;SDS011;64418;47.536;19.074;2023-02-28T02:50:12;16.65;;;7.95;;
75793;SDS011;64418;47.536;19.074;2023-02-28T02:52:42;14.27;;;7.28;;
75793;SDS011;64418;47.536;19.074;2023-02-28T02:55:14;14.70;;;7.32;;
75793;SDS011;64418;47.536;19.074;2023-02-28T02:57:42;16.17;;;7.57;;
75793;SDS011;64418;47.536;19.074;2023-02-28T03:00:11;13.83;;;7.27;;
75793;SDS011;64418;47.536;19.074;2023-02-28T03:02:39;12.90;;;7.15;;
75793;SDS011;64418;47.536;19.074;2023-02-28T03:05:07;16.25;;;7.30;;
75793;SDS011;64418;47.536;19.074;2023-02-28T03:07:41;13.18;;;6.95;;
75793;SDS011;64418;47.536;19.074;2023-02-28T03:12:53;14.37;;;6.83;;
75793;SDS011;64418;47.536;19.074;2023-02-28T03:15:27;14.77;;;7.43;;
75793;SDS011;64418;47.536;19.074;2023-02-28T03:18:01;15.95;;;7.90;;
75793;SDS011;64418;47.536;19.074;2023-02-28T03:20:35;18.25;;;7.87;;
75793;SDS011;64418;47.536;19.074;2023-02-28T03:23:29;14.18;;;7.55;;
75793;SDS011;64418;47.536;19.074;2023-02-28T03:26:04;17.33;;;8.37;;
75793;SDS011;64418;47.536;19.074;2023-02-28T03:28:58;13.43;;;7.10;;
75793;SDS011;64418;47.536;19.074;2023-02-28T03:31:48;16.27;;;7.65;;
75793;SDS011;64418;47.536;19.074;2023-02-28T03:34:39;14.90;;;6.95;;
75793;SDS011;64418;47.536;19.074;2023-02-28T03:37:07;16.55;;;7.07;;
75793;SDS011;64418;47.536;19.074;2023-02-28T03:39:39;14.53;;;8.30;;
75793;SDS011;64418;47.536;19.074;2023-02-28T03:42:09;13.23;;;6.50;;
75793;SDS011;64418;47.536;19.074;2023-02-28T03:44:39;13.60;;;6.80;;
75793;SDS011;64418;47.536;19.074;2023-02-28T03:47:09;13.62;;;6.70;;
75793;SDS011;64418;47.536;19.074;2023-02-28T03:49:39;12.77;;;6.37;;
75793;SDS011;64418;47.536;19.074;2023-02-28T03:52:29;12.43;;;6.67;;
75793;SDS011;64418;47.536;19.074;2023-02-28T03:55:00;12.85;;;6.00;;
75793;SDS011;64418;47.536;19.074;2023-02-28T03:57:52;12.27;;;5.85;;
75793;SDS011;64418;47.536;19.074;2023-02-28T04:00:25;10.77;;;5.75;;
75793;SDS011;64418;47.536;19.074;2023-02-28T04:02:56;15.00;;;5.82;;
75793;SDS011;64418;47.536;19.074;2023-02-28T04:05:23;11.03;;;5.67;;
75793;SDS011;64418;47.536;19.074;2023-02-28T04:07:50;10.35;;;5.35;;
75793;SDS011;64418;47.536;19.074;2023-02-28T04:10:17;9.70;;;5.43;;
75793;SDS011;64418;47.536;19.074;2023-02-28T04:12:43;10.85;;;5.35;;
75793;SDS011;64418;47.536;19.074;2023-02-28T04:15:09;11.33;;;5.67;;
75793;SDS011;64418;47.536;19.074;2023-02-28T04:17:35;12.48;;;5.70;;
75793;SDS011;64418;47.536;19.074;2023-02-28T04:20:02;11.35;;;5.50;;
75793;SDS011;64418;47.536;19.074;2023-02-28T04:22:28;11.02;;;5.50;;
75793;SDS011;64418;47.536;19.074;2023-02-28T04:24:54;7.37;;;4.20;;
75793;SDS011;64418;47.536;19.074;2023-02-28T04:27:22;8.73;;;4.50;;
75793;SDS011;64418;47.536;19.074;2023-02-28T04:29:48;10.40;;;4.82;;
75793;SDS011;64418;47.536;19.074;2023-02-28T04:32:15;10.50;;;5.10;;
75793;SDS011;64418;47.536;19.074;2023-02-28T04:34:41;10.67;;;5.23;;
75793;SDS011;64418;47.536;19.074;2023-02-28T04:37:07;10.45;;;4.40;;
75793;SDS011;64418;47.536;19.074;2023-02-28T04:39:34;10.70;;;4.97;;
75793;SDS011;64418;47.536;19.074;2023-02-28T04:42:01;9.87;;;5.10;;
75793;SDS011;64418;47.536;19.074;2023-02-28T04:44:28;9.68;;;4.40;;
75793;SDS011;64418;47.536;19.074;2023-02-28T04:46:54;10.55;;;4.93;;
75793;SDS011;64418;47.536;19.074;2023-02-28T04:49:20;9.50;;;5.20;;
75793;SDS011;64418;47.536;19.074;2023-02-28T04:51:46;9.43;;;4.50;;
75793;SDS011;64418;47.536;19.074;2023-02-28T04:54:12;10.02;;;5.00;;
75793;SDS011;64418;47.536;19.074;2023-02-28T04:56:37;9.85;;;4.93;;
75793;SDS011;64418;47.536;19.074;2023-02-28T04:59:03;11.67;;;5.93;;
75793;SDS011;64418;47.536;19.074;2023-02-28T05:01:31;9.93;;;4.83;;
75793;SDS011;64418;47.536;19.074;2023-02-28T05:03:58;10.77;;;4.80;;
75793;SDS011;64418;47.536;19.074;2023-02-28T05:06:26;8.98;;;5.03;;
75793;SDS011;64418;47.536;19.074;2023-02-28T05:08:54;12.73;;;5.28;;
75793;SDS011;64418;47.536;19.074;2023-02-28T05:11:20;10.80;;;4.50;;
75793;SDS011;64418;47.536;19.074;2023-02-28T05:13:48;11.27;;;5.60;;
75793;SDS011;64418;47.536;19.074;2023-02-28T05:16:15;9.67;;;5.13;;
75793;SDS011;64418;47.536;19.074;2023-02-28T05:18:44;10.13;;;4.93;;
75793;SDS011;64418;47.536;19.074;2023-02-28T05:23:55;8.50;;;4.65;;
75793;SDS011;64418;47.536;19.074;2023-02-28T05:26:21;9.82;;;4.35;;
75793;SDS011;64418;47.536;19.074;2023-02-28T05:28:47;10.33;;;5.33;;
75793;SDS011;64418;47.536;19.074;2023-02-28T05:31:13;10.23;;;4.82;;
75793;SDS011;64418;47.536;19.074;2023-02-28T05:33:39;8.18;;;4.97;;
75793;SDS011;64418;47.536;19.074;2023-02-28T05:36:07;11.23;;;4.83;;
75793;SDS011;64418;47.536;19.074;2023-02-28T05:38:33;13.13;;;4.72;;
75793;SDS011;64418;47.536;19.074;2023-02-28T05:40:58;8.97;;;3.87;;
75793;SDS011;64418;47.536;19.074;2023-02-28T05:43:24;7.30;;;4.17;;
75793;SDS011;64418;47.536;19.074;2023-02-28T05:45:50;12.32;;;4.53;;
75793;SDS011;64418;47.536;19.074;2023-02-28T05:48:16;16.27;;;4.47;;
75793;SDS011;64418;47.536;19.074;2023-02-28T05:50:42;8.73;;;4.60;;
75793;SDS011;64418;47.536;19.074;2023-02-28T05:53:09;11.60;;;4.53;;
75793;SDS011;64418;47.536;19.074;2023-02-28T05:55:35;9.77;;;4.70;;
75793;SDS011;64418;47.536;19.074;2023-02-28T05:58:02;11.20;;;4.60;;
75793;SDS011;64418;47.536;19.074;2023-02-28T06:00:28;9.05;;;4.80;;
75793;SDS011;64418;47.536;19.074;2023-02-28T06:02:54;9.40;;;4.40;;
75793;SDS011;64418;47.536;19.074;2023-02-28T06:05:20;11.90;;;4.50;;
75793;SDS011;64418;47.536;19.074;2023-02-28T06:07:47;8.93;;;4.28;;
75793;SDS011;64418;47.536;19.074;2023-02-28T06:10:15;8.97;;;4.43;;
75793;SDS011;64418;47.536;19.074;2023-02-28T06:12:41;10.70;;;4.90;;
75793;SDS011;64418;47.536;19.074;2023-02-28T06:15:07;9.75;;;5.07;;
75793;SDS011;64418;47.536;19.074;2023-02-28T06:17:36;11.38;;;5.35;;
75793;SDS011;64418;47.536;19.074;2023-02-28T06:20:03;15.30;;;5.17;;
75793;SDS011;64418;47.536;19.074;2023-02-28T06:22:29;11.23;;;4.65;;
75793;SDS011;64418;47.536;19.074;2023-02-28T06:25:17;8.70;;;4.37;;
75793;SDS011;64418;47.536;19.074;2023-02-28T06:27:43;9.75;;;4.65;;
75793;SDS011;64418;47.536;19.074;2023-02-28T06:30:09;10.23;;;4.15;;
75793;SDS011;64418;47.536;19.074;2023-02-28T06:32:36;26.30;;;4.63;;
75793;SDS011;64418;47.536;19.074;2023-02-28T06:35:03;9.23;;;3.87;;
75793;SDS011;64418;47.536;19.074;2023-02-28T06:37:30;7.05;;;3.90;;
75793;SDS011;64418;47.536;19.074;2023-02-28T06:39:56;8.18;;;3.67;;
75793;SDS011;64418;47.536;19.074;2023-02-28T06:42:24;9.30;;;4.22;;
75793;SDS011;64418;47.536;19.074;2023-02-28T06:44:50;8.97;;;4.10;;
75793;SDS011;64418;47.536;19.074;2023-02-28T06:47:16;10.02;;;4.37;;
75793;SDS011;64418;47.536;19.074;2023-02-28T06:49:42;8.45;;;4.37;;
75793;SDS011;64418;47.536;19.074;2023-02-28T06:52:08;9.05;;;4.20;;
75793;SDS011;64418;47.536;19.074;2023-02-28T06:54:34;16.97;;;6.63;;
75793;SDS011;64418;47.536;19.074;2023-02-28T06:57:01;7.37;;;3.90;;
75793;SDS011;64418;47.536;19.074;2023-02-28T06:59:48;10.45;;;4.45;;
75793;SDS011;64418;47.536;19.074;2023-02-28T07:02:14;10.45;;;3.95;;
75793;SDS011;64418;47.536;19.074;2023-02-28T07:04:40;9.80;;;4.77;;
75793;SDS011;64418;47.536;19.074;2023-02-28T07:07:05;9.07;;;4.35;;
75793;SDS011;64418;47.536;19.074;2023-02-28T07:09:31;7.53;;;3.97;;
75793;SDS011;64418;47.536;19.074;2023-02-28T07:11:57;9.30;;;3.72;;
75793;SDS011;64418;47.536;19.074;2023-02-28T07:14:23;7.93;;;4.03;;
75793;SDS011;64418;47.536;19.074;2023-02-28T07:16:50;6.70;;;3.60;;
75793;SDS011;64418;47.536;19.074;2023-02-28T07:19:36;7.63;;;3.70;;
75793;SDS011;64418;47.536;19.074;2023-02-28T07:22:03;11.52;;;3.85;;
75793;SDS011;64418;47.536;19.074;2023-02-28T07:24:28;9.10;;;3.90;;
75793;SDS011;64418;47.536;19.074;2023-02-28T07:26:54;9.68;;;4.07;;
75793;SDS011;64418;47.536;19.074;2023-02-28T07:29:20;9.33;;;4.20;;
75793;SDS011;64418;47.536;19.074;2023-02-28T07:32:08;8.00;;;4.10;;
75793;SDS011;64418;47.536;19.074;2023-02-28T07:34:34;7.32;;;3.95;;
75793;SDS011;64418;47.536;19.074;2023-02-28T07:36:59;8.23;;;4.40;;
75793;SDS011;64418;47.536;19.074;2023-02-28T07:39:45;7.87;;;4.37;;
75793;SDS011;64418;47.536;19.074;2023-02-28T07:42:11;8.55;;;4.62;;
75793;SDS011;64418;47.536;19.074;2023-02-28T07:44:37;8.48;;;4.28;;
75793;SDS011;64418;47.536;19.074;2023-02-28T07:47:04;7.62;;;4.47;;
75793;SDS011;64418;47.536;19.074;2023-02-28T07:49:31;9.07;;;4.17;;
75793;SDS011;64418;47.536;19.074;2023-02-28T07:51:56;9.32;;;3.92;;
75793;SDS011;64418;47.536;19.074;2023-02-28T07:54:22;7.95;;;4.20;;
75793;SDS011;64418;47.536;19.074;2023-02-28T07:57:08;9.68;;;4.62;;
75793;SDS011;64418;47.536;19.074;2023-02-28T07:59:33;8.77;;;4.57;;
75793;SDS011;64418;47.536;19.074;2023-02-28T08:01:59;8.83;;;4.67;;
75793;SDS011;64418;47.536;19.074;2023-02-28T08:04:25;12.52;;;4.53;;
75793;SDS011;64418;47.536;19.074;2023-02-28T08:06:53;8.60;;;4.10;;
75793;SDS011;64418;47.536;19.074;2023-02-28T08:09:19;10.32;;;4.53;;
75793;SDS011;64418;47.536;19.074;2023-02-28T08:11:47;7.77;;;4.30;;
75793;SDS011;64418;47.536;19.074;2023-02-28T08:14:13;9.80;;;3.97;;
75793;SDS011;64418;47.536;19.074;2023-02-28T08:16:39;9.83;;;5.03;;
75793;SDS011;64418;47.536;19.074;2023-02-28T08:19:04;10.80;;;5.07;;
75793;SDS011;64418;47.536;19.074;2023-02-28T08:21:30;12.82;;;5.10;;
75793;SDS011;64418;47.536;19.074;2023-02-28T08:24:17;10.95;;;5.10;;
75793;SDS011;64418;47.536;19.074;2023-02-28T08:26:43;11.37;;;4.40;;
75793;SDS011;64418;47.536;19.074;2023-02-28T08:29:29;8.98;;;4.50;;
75793;SDS011;64418;47.536;19.074;2023-02-28T08:32:15;12.30;;;5.10;;
75793;SDS011;64418;47.536;19.074;2023-02-28T08:34:41;9.10;;;4.43;;
75793;SDS011;64418;47.536;19.074;2023-02-28T08:37:27;8.60;;;4.30;;
75793;SDS011;64418;47.536;19.074;2023-02-28T08:39:54;14.47;;;4.60;;
75793;SDS011;64418;47.536;19.074;2023-02-28T08:42:20;8.82;;;4.57;;
75793;SDS011;64418;47.536;19.074;2023-02-28T08:44:46;10.10;;;4.33;;
75793;SDS011;64418;47.536;19.074;2023-02-28T08:47:12;8.60;;;3.33;;
75793;SDS011;64418;47.536;19.074;2023-02-28T08:49:58;8.15;;;3.78;;
75793;SDS011;64418;47.536;19.074;2023-02-28T08:52:23;7.95;;;4.45;;
75793;SDS011;64418;47.536;19.074;2023-02-28T08:54:49;8.70;;;4.87;;
75793;SDS011;64418;47.536;19.074;2023-02-28T08:57:16;8.57;;;4.28;;
75793;SDS011;64418;47.536;19.074;2023-02-28T08:59:42;7.53;;;3.93;;
75793;SDS011;64418;47.536;19.074;2023-02-28T09:02:28;12.73;;;5.30;;
75793;SDS011;64418;47.536;19.074;2023-02-28T09:04:53;8.10;;;4.43;;
75793;SDS011;64418;47.536;19.074;2023-02-28T09:07:20;8.07;;;4.37;;
75793;SDS011;64418;47.536;19.074;2023-02-28T09:10:06;5.87;;;4.03;;
75793;SDS011;64418;47.536;19.074;2023-02-28T09:12:34;7.23;;;4.23;;
75793;SDS011;64418;47.536;19.074;2023-02-28T09:15:00;8.77;;;4.50;;
75793;SDS011;64418;47.536;19.074;2023-02-28T09:17:46;9.52;;;4.87;;
75793;SDS011;64418;47.536;19.074;2023-02-28T09:20:12;6.87;;;4.30;;
75793;SDS011;64418;47.536;19.074;2023-02-28T09:22:38;12.80;;;5.33;;
75793;SDS011;64418;47.536;19.074;2023-02-28T09:25:04;7.60;;;4.10;;
75793;SDS011;64418;47.536;19.074;2023-02-28T09:27:30;8.23;;;4.62;;
75793;SDS011;64418;47.536;19.074;2023-02-28T09:30:18;14.13;;;4.37;;
75793;SDS011;64418;47.536;19.074;2023-02-28T09:32:44;8.80;;;4.00;;
75793;SDS011;64418;47.536;19.074;2023-02-28T09:35:09;13.82;;;4.10;;
75793;SDS011;64418;47.536;19.074;2023-02-28T09:37:55;11.45;;;4.60;;
75793;SDS011;64418;47.536;19.074;2023-02-28T09:40:25;7.07;;;3.00;;
75793;SDS011;64418;47.536;19.074;2023-02-28T09:42:52;8.20;;;3.73;;
75793;SDS011;64418;47.536;19.074;2023-02-28T09:45:23;7.95;;;3.87;;
75793;SDS011;64418;47.536;19.074;2023-02-28T09:47:53;5.50;;;3.60;;
75793;SDS011;64418;47.536;19.074;2023-02-28T09:50:29;5.68;;;3.50;;
75793;SDS011;64418;47.536;19.074;2023-02-28T09:53:19;10.68;;;4.30;;
75793;SDS011;64418;47.536;19.074;2023-02-28T09:55:51;7.83;;;3.97;;
75793;SDS011;64418;47.536;19.074;2023-02-28T09:58:22;7.03;;;3.60;;
75793;SDS011;64418;47.536;19.074;2023-02-28T10:00:56;9.88;;;3.83;;
75793;SDS011;64418;47.536;19.074;2023-02-28T10:03:30;7.47;;;3.60;;
75793;SDS011;64418;47.536;19.074;2023-02-28T10:06:02;9.43;;;3.85;;
75793;SDS011;64418;47.536;19.074;2023-02-28T10:08:35;9.48;;;3.90;;
75793;SDS011;64418;47.536;19.074;2023-02-28T10:11:05;9.60;;;3.30;;
75793;SDS011;64418;47.536;19.074;2023-02-28T10:13:35;8.33;;;3.97;;
75793;SDS011;64418;47.536;19.074;2023-02-28T10:16:08;7.75;;;4.28;;
75793;SDS011;64418;47.536;19.074;2023-02-28T10:18:59;7.18;;;3.60;;
75793;SDS011;64418;47.536;19.074;2023-02-28T10:21:30;6.80;;;3.37;;
75793;SDS011;64418;47.536;19.074;2023-02-28T10:24:02;6.87;;;3.85;;
75793;SDS011;64418;47.536;19.074;2023-02-28T10:27:00;4.97;;;3.00;;
75793;SDS011;64418;47.536;19.074;2023-02-28T10:29:31;9.40;;;3.57;;
75793;SDS011;64418;47.536;19.074;2023-02-28T10:32:20;6.80;;;3.33;;
75793;SDS011;64418;47.536;19.074;2023-02-28T10:34:50;10.25;;;3.75;;
75793;SDS011;64418;47.536;19.074;2023-02-28T10:37:38;8.25;;;3.85;;
75793;SDS011;64418;47.536;19.074;2023-02-28T10:40:29;6.95;;;3.87;;
75793;SDS011;64418;47.536;19.074;2023-02-28T10:43:18;6.93;;;3.63;;
75793;SDS011;64418;47.536;19.074;2023-02-28T10:46:12;11.10;;;4.50;;
75793;SDS011;64418;47.536;19.074;2023-02-28T10:48:43;7.20;;;3.83;;
75793;SDS011;64418;47.536;19.074;2023-02-28T10:51:11;8.10;;;4.10;;
75793;SDS011;64418;47.536;19.074;2023-02-28T10:53:58;6.45;;;3.58;;
75793;SDS011;64418;47.536;19.074;2023-02-28T10:56:44;7.13;;;3.80;;
75793;SDS011;64418;47.536;19.074;2023-02-28T10:59:23;5.53;;;3.80;;
75793;SDS011;64418;47.536;19.074;2023-02-28T11:01:53;8.48;;;4.00;;
75793;SDS011;64418;47.536;19.074;2023-02-28T11:04:44;7.53;;;3.20;;
75793;SDS011;64418;47.536;19.074;2023-02-28T11:07:16;7.50;;;3.33;;
75793;SDS011;64418;47.536;19.074;2023-02-28T11:10:06;5.93;;;3.90;;
75793;SDS011;64418;47.536;19.074;2023-02-28T11:12:42;7.77;;;3.23;;
75793;SDS011;64418;47.536;19.074;2023-02-28T11:15:18;7.03;;;3.90;;
75793;SDS011;64418;47.536;19.074;2023-02-28T11:18:15;6.32;;;3.47;;
75793;SDS011;64418;47.536;19.074;2023-02-28T11:21:09;7.12;;;3.97;;
75793;SDS011;64418;47.536;19.074;2023-02-28T11:23:43;7.65;;;3.92;;
75793;SDS011;64418;47.536;19.074;2023-02-28T11:26:09;7.53;;;3.83;;
75793;SDS011;64418;47.536;19.074;2023-02-28T11:29:02;7.57;;;3.67;;
75793;SDS011;64418;47.536;19.074;2023-02-28T11:31:35;6.97;;;4.20;;
75793;SDS011;64418;47.536;19.074;2023-02-28T11:34:00;8.95;;;4.05;;
75793;SDS011;64418;47.536;19.074;2023-02-28T11:37:10;7.70;;;4.27;;
75793;SDS011;64418;47.536;19.074;2023-02-28T11:39:58;5.90;;;3.60;;
75793;SDS011;64418;47.536;19.074;2023-02-28T11:42:28;8.77;;;3.80;;
75793;SDS011;64418;47.536;19.074;2023-02-28T11:45:21;6.82;;;4.25;;
75793;SDS011;64418;47.536;19.074;2023-02-28T11:48:20;7.37;;;4.23;;
75793;SDS011;64418;47.536;19.074;2023-02-28T11:51:00;7.72;;;3.83;;
75793;SDS011;64418;47.536;19.074;2023-02-28T11:54:04;8.88;;;4.20;;
75793;SDS011;64418;47.536;19.074;2023-02-28T11:56:51;7.37;;;4.12;;
75793;SDS011;64418;47.536;19.074;2023-02-28T11:59:41;6.80;;;3.75;;
75793;SDS011;64418;47.536;19.074;2023-02-28T12:02:42;7.83;;;3.80;;
75793;SDS011;64418;47.536;19.074;2023-02-28T12:05:24;9.60;;;4.20;;
75793;SDS011;64418;47.536;19.074;2023-02-28T12:07:58;7.55;;;4.07;;
75793;SDS011;64418;47.536;19.074;2023-02-28T12:10:44;7.78;;;3.60;;
75793;SDS011;64418;47.536;19.074;2023-02-28T12:13:23;6.22;;;3.78;;
75793;SDS011;64418;47.536;19.074;2023-02-28T12:16:01;7.57;;;3.73;;
75793;SDS011;64418;47.536;19.074;2023-02-28T12:19:09;12.50;;;3.53;;
75793;SDS011;64418;47.536;19.074;2023-02-28T12:21:46;8.85;;;3.60;;
75793;SDS011;64418;47.536;19.074;2023-02-28T12:24:28;9.57;;;4.35;;
75793;SDS011;64418;47.536;19.074;2023-02-28T12:27:26;9.90;;;5.60;;
75793;SDS011;64418;47.536;19.074;2023-02-28T12:30:18;18.45;;;12.43;;
75793;SDS011;64418;47.536;19.074;2023-02-28T12:33:08;8.10;;;4.27;;
75793;SDS011;64418;47.536;19.074;2023-02-28T12:35:58;8.57;;;4.43;;
75793;SDS011;64418;47.536;19.074;2023-02-28T12:38:31;7.28;;;4.03;;
75793;SDS011;64418;47.536;19.074;2023-02-28T12:41:02;7.97;;;3.62;;
75793;SDS011;64418;47.536;19.074;2023-02-28T12:43:36;9.45;;;4.18;;
75793;SDS011;64418;47.536;19.074;2023-02-28T12:46:27;7.50;;;3.50;;
75793;SDS011;64418;47.536;19.074;2023-02-28T12:48:58;9.40;;;3.47;;
75793;SDS011;64418;47.536;19.074;2023-02-28T12:51:47;6.47;;;3.42;;
75793;SDS011;64418;47.536;19.074;2023-02-28T12:54:16;11.18;;;4.28;;
75793;SDS011;64418;47.536;19.074;2023-02-28T12:56:50;6.87;;;3.40;;
75793;SDS011;64418;47.536;19.074;2023-02-28T12:59:26;7.75;;;3.80;;
75793;SDS011;64418;47.536;19.074;2023-02-28T13:08:49;7.90;;;4.57;;
75793;SDS011;64418;47.536;19.074;2023-02-28T13:11:46;15.13;;;4.30;;
75793;SDS011;64418;47.536;19.074;2023-02-28T13:14:19;5.55;;;3.10;;
75793;SDS011;64418;47.536;19.074;2023-02-28T13:16:54;8.13;;;3.73;;
75793;SDS011;64418;47.536;19.074;2023-02-28T13:19:22;6.72;;;3.30;;
75793;SDS011;64418;47.536;19.074;2023-02-28T13:21:50;7.50;;;3.72;;
75793;SDS011;64418;47.536;19.074;2023-02-28T13:24:41;8.32;;;3.35;;
75793;SDS011;64418;47.536;19.074;2023-02-28T13:30:01;6.67;;;3.50;;
75793;SDS011;64418;47.536;19.074;2023-02-28T13:36:09;5.12;;;2.85;;
75793;SDS011;64418;47.536;19.074;2023-02-28T13:42:13;8.70;;;3.72;;
75793;SDS011;64418;47.536;19.074;2023-02-28T13:48:15;7.35;;;3.10;;
75793;SDS011;64418;47.536;19.074;2023-02-28T13:50:45;5.07;;;3.15;;
75793;SDS011;64418;47.536;19.074;2023-02-28T13:53:46;6.40;;;3.17;;
75793;SDS011;64418;47.536;19.074;2023-02-28T13:56:29;7.35;;;3.80;;
75793;SDS011;64418;47.536;19.074;2023-02-28T13:59:26;8.07;;;3.30;;
75793;SDS011;64418;47.536;19.074;2023-02-28T14:02:02;9.55;;;3.10;;
75793;SDS011;64418;47.536;19.074;2023-02-28T14:04:49;5.12;;;2.80;;
75793;SDS011;64418;47.536;19.074;2023-02-28T14:07:47;5.95;;;3.30;;
75793;SDS011;64418;47.536;19.074;2023-02-28T14:10:21;6.30;;;3.05;;
75793;SDS011;64418;47.536;19.074;2023-02-28T14:13:03;7.87;;;3.20;;
75793;SDS011;64418;47.536;19.074;2023-02-28T14:15:57;6.83;;;3.50;;
75793;SDS011;64418;47.536;19.074;2023-02-28T14:18:29;11.07;;;4.37;;
75793;SDS011;64418;47.536;19.074;2023-02-28T14:21:20;6.90;;;3.72;;
75793;SDS011;64418;47.536;19.074;2023-02-28T14:24:19;5.30;;;3.40;;
75793;SDS011;64418;47.536;19.074;2023-02-28T14:27:36;8.80;;;4.07;;
75793;SDS011;64418;47.536;19.074;2023-02-28T14:30:40;8.70;;;3.93;;
75793;SDS011;64418;47.536;19.074;2023-02-28T14:33:19;10.32;;;3.75;;
75793;SDS011;64418;47.536;19.074;2023-02-28T14:35:56;5.18;;;3.33;;
75793;SDS011;64418;47.536;19.074;2023-02-28T14:38:50;7.03;;;3.65;;
75793;SDS011;64418;47.536;19.074;2023-02-28T14:41:20;7.47;;;3.67;;
75793;SDS011;64418;47.536;19.074;2023-02-28T14:43:55;7.20;;;3.60;;
75793;SDS011;64418;47.536;19.074;2023-02-28T14:46:22;6.00;;;3.37;;
75793;SDS011;64418;47.536;19.074;2023-02-28T14:48:52;6.37;;;3.60;;
75793;SDS011;64418;47.536;19.074;2023-02-28T14:51:38;6.68;;;3.55;;
75793;SDS011;64418;47.536;19.074;2023-02-28T14:54:04;6.97;;;3.45;;
75793;SDS011;64418;47.536;19.074;2023-02-28T14:56:32;7.50;;;3.50;;
75793;SDS011;64418;47.536;19.074;2023-02-28T14:59:00;8.38;;;3.25;;
75793;SDS011;64418;47.536;19.074;2023-02-28T15:01:29;7.28;;;3.70;;
75793;SDS011;64418;47.536;19.074;2023-02-28T15:03:59;13.25;;;4.68;;
75793;SDS011;64418;47.536;19.074;2023-02-28T15:06:47;6.47;;;3.87;;
75793;SDS011;64418;47.536;19.074;2023-02-28T15:09:32;6.23;;;3.50;;
75793;SDS011;64418;47.536;19.074;2023-02-28T15:11:59;6.65;;;3.30;;
75793;SDS011;64418;47.536;19.074;2023-02-28T15:14:25;7.30;;;4.28;;
75793;SDS011;64418;47.536;19.074;2023-02-28T15:16:52;5.63;;;3.33;;
75793;SDS011;64418;47.536;19.074;2023-02-28T15:19:23;7.25;;;3.75;;
75793;SDS011;64418;47.536;19.074;2023-02-28T15:21:53;5.82;;;3.53;;
75793;SDS011;64418;47.536;19.074;2023-02-28T15:24:24;7.37;;;3.67;;
75793;SDS011;64418;47.536;19.074;2023-02-28T15:26:56;7.15;;;3.62;;
75793;SDS011;64418;47.536;19.074;2023-02-28T15:29:25;5.93;;;3.60;;
75793;SDS011;64418;47.536;19.074;2023-02-28T15:31:55;7.28;;;3.75;;
75793;SDS011;64418;47.536;19.074;2023-02-28T15:34:45;6.68;;;3.67;;
75793;SDS011;64418;47.536;19.074;2023-02-28T15:37:27;9.63;;;3.60;;